Manteo, North Carolina
Current Conditions -  °F | °C
As of 7:35 AM on Friday 31 Oct 2014 (Local Time) from KMQI Reporting Station
Broken Clouds Broken Clouds  
Wind Chill: 58°   Ceiling: 7000
Heat Index: 58°   Visibility: 10mi
Dew Point: 46°   Wind: 14mph
Humidity: 63%   Direction: 20°NNE
Pressure: 29.9"   Gusts: 17mph
Location:  35.91°N, 75.68°W
Report Text: KMQI 311135Z AUTO 02012G15KT 10SM SCT050 BKN070 15/08 A2990 RMK AO2 T01470077
Loading
Personal Weather Stations






























Interactive Weather Map
Tropical Storm Tracking
New forecast layout! Learn more

10-Day Weather Forecast

Advertisements
Track Severe Weather on mobile